sensor_id;sensor_type;location;lat;lon;timestamp;pressure;altitude;pressure_sealevel;temperature
45850;BMP180;10739;52.198;20.908;2022-12-18T00:01:36;101634.00;;;-0.30
45850;BMP180;10739;52.198;20.908;2022-12-18T00:04:05;101629.00;;;-0.30
45850;BMP180;10739;52.198;20.908;2022-12-18T00:06:32;101632.00;;;-0.20
45850;BMP180;10739;52.198;20.908;2022-12-18T00:09:00;101639.00;;;-0.20
45850;BMP180;10739;52.198;20.908;2022-12-18T00:11:30;101641.00;;;-0.30
45850;BMP180;10739;52.198;20.908;2022-12-18T00:13:59;101637.00;;;0.00
45850;BMP180;10739;52.198;20.908;2022-12-18T00:16:28;101637.00;;;0.00
45850;BMP180;10739;52.198;20.908;2022-12-18T00:18:56;101630.00;;;0.10
45850;BMP180;10739;52.198;20.908;2022-12-18T00:21:23;101636.00;;;0.00
45850;BMP180;10739;52.198;20.908;2022-12-18T00:23:50;101648.00;;;0.20
45850;BMP180;10739;52.198;20.908;2022-12-18T00:26:23;101651.00;;;-0.30
45850;BMP180;10739;52.198;20.908;2022-12-18T00:28:52;101646.00;;;0.00
45850;BMP180;10739;52.198;20.908;2022-12-18T00:31:23;101664.00;;;0.00
45850;BMP180;10739;52.198;20.908;2022-12-18T00:33:50;101654.00;;;-0.10
45850;BMP180;10739;52.198;20.908;2022-12-18T00:36:23;101656.00;;;-0.10
45850;BMP180;10739;52.198;20.908;2022-12-18T00:38:50;101656.00;;;-0.30
45850;BMP180;10739;52.198;20.908;2022-12-18T00:41:18;101660.00;;;-0.10
45850;BMP180;10739;52.198;20.908;2022-12-18T00:44:05;101678.00;;;0.00
45850;BMP180;10739;52.198;20.908;2022-12-18T00:46:32;101668.00;;;0.10
45850;BMP180;10739;52.198;20.908;2022-12-18T00:48:58;101681.00;;;0.20
45850;BMP180;10739;52.198;20.908;2022-12-18T00:51:26;101677.00;;;-0.20
45850;BMP180;10739;52.198;20.908;2022-12-18T00:53:52;101678.00;;;0.00
45850;BMP180;10739;52.198;20.908;2022-12-18T00:56:19;101677.00;;;0.20
45850;BMP180;10739;52.198;20.908;2022-12-18T00:58:45;101686.00;;;-0.30
45850;BMP180;10739;52.198;20.908;2022-12-18T01:01:11;101673.00;;;-0.10
45850;BMP180;10739;52.198;20.908;2022-12-18T01:03:37;101684.00;;;0.00
45850;BMP180;10739;52.198;20.908;2022-12-18T01:06:12;101688.00;;;0.10
45850;BMP180;10739;52.198;20.908;2022-12-18T01:08:39;101698.00;;;-0.20
45850;BMP180;10739;52.198;20.908;2022-12-18T01:11:14;101695.00;;;-0.30
45850;BMP180;10739;52.198;20.908;2022-12-18T01:13:40;101701.00;;;-0.20
45850;BMP180;10739;52.198;20.908;2022-12-18T01:16:07;101711.00;;;0.00
45850;BMP180;10739;52.198;20.908;2022-12-18T01:18:35;101705.00;;;-0.30
45850;BMP180;10739;52.198;20.908;2022-12-18T01:21:07;101703.00;;;-0.30
45850;BMP180;10739;52.198;20.908;2022-12-18T01:23:34;101697.00;;;0.20
45850;BMP180;10739;52.198;20.908;2022-12-18T01:26:15;101705.00;;;-0.50
45850;BMP180;10739;52.198;20.908;2022-12-18T01:28:43;101704.00;;;-0.50
45850;BMP180;10739;52.198;20.908;2022-12-18T01:31:19;101712.00;;;-0.30
45850;BMP180;10739;52.198;20.908;2022-12-18T01:33:46;101720.00;;;0.00
45850;BMP180;10739;52.198;20.908;2022-12-18T01:36:22;101726.00;;;0.40
45850;BMP180;10739;52.198;20.908;2022-12-18T01:38:50;101722.00;;;0.20
45850;BMP180;10739;52.198;20.908;2022-12-18T01:41:24;101728.00;;;0.20
45850;BMP180;10739;52.198;20.908;2022-12-18T01:43:55;101739.00;;;0.00
45850;BMP180;10739;52.198;20.908;2022-12-18T01:46:25;101741.00;;;-0.10
45850;BMP180;10739;52.198;20.908;2022-12-18T01:48:59;101740.00;;;0.40
45850;BMP180;10739;52.198;20.908;2022-12-18T01:51:28;101745.00;;;0.20
45850;BMP180;10739;52.198;20.908;2022-12-18T01:53:56;101740.00;;;0.20
45850;BMP180;10739;52.198;20.908;2022-12-18T01:56:22;101742.00;;;-0.20
45850;BMP180;10739;52.198;20.908;2022-12-18T01:58:58;101749.00;;;-0.40
45850;BMP180;10739;52.198;20.908;2022-12-18T02:01:26;101744.00;;;-0.20
45850;BMP180;10739;52.198;20.908;2022-12-18T02:03:53;101760.00;;;0.00
45850;BMP180;10739;52.198;20.908;2022-12-18T02:06:39;101763.00;;;0.00
45850;BMP180;10739;52.198;20.908;2022-12-18T02:09:24;101762.00;;;0.00
45850;BMP180;10739;52.198;20.908;2022-12-18T02:12:27;101770.00;;;0.00
45850;BMP180;10739;52.198;20.908;2022-12-18T02:18:07;101785.00;;;0.10
45850;BMP180;10739;52.198;20.908;2022-12-18T02:20:55;101775.00;;;0.30
45850;BMP180;10739;52.198;20.908;2022-12-18T02:26:30;101790.00;;;0.20
45850;BMP180;10739;52.198;20.908;2022-12-18T02:29:40;101804.00;;;-0.30
45850;BMP180;10739;52.198;20.908;2022-12-18T02:32:16;101794.00;;;0.10
45850;BMP180;10739;52.198;20.908;2022-12-18T02:34:46;101796.00;;;0.10
45850;BMP180;10739;52.198;20.908;2022-12-18T02:37:17;101800.00;;;0.00
45850;BMP180;10739;52.198;20.908;2022-12-18T02:39:47;101813.00;;;-0.30
45850;BMP180;10739;52.198;20.908;2022-12-18T02:42:16;101807.00;;;-0.10
45850;BMP180;10739;52.198;20.908;2022-12-18T02:44:50;101811.00;;;0.00
45850;BMP180;10739;52.198;20.908;2022-12-18T02:47:20;101817.00;;;0.30
45850;BMP180;10739;52.198;20.908;2022-12-18T02:50:07;101816.00;;;0.50
45850;BMP180;10739;52.198;20.908;2022-12-18T02:53:10;101815.00;;;-0.10
45850;BMP180;10739;52.198;20.908;2022-12-18T02:59:13;101829.00;;;0.30
45850;BMP180;10739;52.198;20.908;2022-12-18T03:01:58;101841.00;;;0.40
45850;BMP180;10739;52.198;20.908;2022-12-18T03:04:41;101846.00;;;0.30
45850;BMP180;10739;52.198;20.908;2022-12-18T03:07:15;101860.00;;;0.00
45850;BMP180;10739;52.198;20.908;2022-12-18T03:09:47;101850.00;;;0.20
45850;BMP180;10739;52.198;20.908;2022-12-18T03:12:43;101864.00;;;-0.20
45850;BMP180;10739;52.198;20.908;2022-12-18T03:15:29;101858.00;;;-0.30
45850;BMP180;10739;52.198;20.908;2022-12-18T03:18:04;101859.00;;;0.10
45850;BMP180;10739;52.198;20.908;2022-12-18T03:20:34;101875.00;;;-0.10
45850;BMP180;10739;52.198;20.908;2022-12-18T03:23:12;101876.00;;;-0.20
45850;BMP180;10739;52.198;20.908;2022-12-18T03:25:44;101865.00;;;-0.20
45850;BMP180;10739;52.198;20.908;2022-12-18T03:28:16;101877.00;;;0.00
45850;BMP180;10739;52.198;20.908;2022-12-18T03:30:47;101879.00;;;0.10
45850;BMP180;10739;52.198;20.908;2022-12-18T03:33:55;101890.00;;;-0.30
45850;BMP180;10739;52.198;20.908;2022-12-18T03:36:24;101895.00;;;-0.10
45850;BMP180;10739;52.198;20.908;2022-12-18T03:38:50;101885.00;;;-0.40
45850;BMP180;10739;52.198;20.908;2022-12-18T03:41:33;101883.00;;;-0.30
45850;BMP180;10739;52.198;20.908;2022-12-18T03:47:58;101878.00;;;0.10
45850;BMP180;10739;52.198;20.908;2022-12-18T03:56:13;101902.00;;;-0.60
45850;BMP180;10739;52.198;20.908;2022-12-18T03:58:43;101896.00;;;-0.40
45850;BMP180;10739;52.198;20.908;2022-12-18T04:01:14;101903.00;;;-0.40
45850;BMP180;10739;52.198;20.908;2022-12-18T04:03:44;101905.00;;;-0.20
45850;BMP180;10739;52.198;20.908;2022-12-18T04:06:13;101916.00;;;-0.50
45850;BMP180;10739;52.198;20.908;2022-12-18T04:08:41;101923.00;;;-0.80
45850;BMP180;10739;52.198;20.908;2022-12-18T04:11:07;101925.00;;;-0.90
45850;BMP180;10739;52.198;20.908;2022-12-18T04:13:38;101930.00;;;-0.40
45850;BMP180;10739;52.198;20.908;2022-12-18T04:16:05;101936.00;;;-0.40
45850;BMP180;10739;52.198;20.908;2022-12-18T04:18:31;101936.00;;;-0.30
45850;BMP180;10739;52.198;20.908;2022-12-18T04:20:57;101939.00;;;-0.40
45850;BMP180;10739;52.198;20.908;2022-12-18T04:23:23;101946.00;;;-0.40
45850;BMP180;10739;52.198;20.908;2022-12-18T04:25:49;101946.00;;;-0.20
45850;BMP180;10739;52.198;20.908;2022-12-18T04:28:15;101956.00;;;-0.10
45850;BMP180;10739;52.198;20.908;2022-12-18T04:30:42;101950.00;;;-0.40
45850;BMP180;10739;52.198;20.908;2022-12-18T04:33:10;101962.00;;;-0.60
45850;BMP180;10739;52.198;20.908;2022-12-18T04:35:38;101962.00;;;-0.40
45850;BMP180;10739;52.198;20.908;2022-12-18T04:38:06;101977.00;;;-0.60
45850;BMP180;10739;52.198;20.908;2022-12-18T04:40:34;101969.00;;;-0.80
45850;BMP180;10739;52.198;20.908;2022-12-18T04:43:00;101961.00;;;-0.70
45850;BMP180;10739;52.198;20.908;2022-12-18T04:45:26;101968.00;;;-0.70
45850;BMP180;10739;52.198;20.908;2022-12-18T04:47:53;101980.00;;;-0.80
45850;BMP180;10739;52.198;20.908;2022-12-18T04:50:19;101980.00;;;-0.90
45850;BMP180;10739;52.198;20.908;2022-12-18T04:52:45;101985.00;;;-0.80
45850;BMP180;10739;52.198;20.908;2022-12-18T04:55:11;101977.00;;;-0.60
45850;BMP180;10739;52.198;20.908;2022-12-18T04:57:37;101988.00;;;-0.80
45850;BMP180;10739;52.198;20.908;2022-12-18T05:00:04;101992.00;;;-1.30
45850;BMP180;10739;52.198;20.908;2022-12-18T05:02:32;101994.00;;;-1.10
45850;BMP180;10739;52.198;20.908;2022-12-18T05:04:58;101997.00;;;-0.90
45850;BMP180;10739;52.198;20.908;2022-12-18T05:07:25;102002.00;;;-1.20
45850;BMP180;10739;52.198;20.908;2022-12-18T05:09:51;102002.00;;;-0.80
45850;BMP180;10739;52.198;20.908;2022-12-18T05:12:17;102015.00;;;-0.80
45850;BMP180;10739;52.198;20.908;2022-12-18T05:14:43;102015.00;;;-0.90
45850;BMP180;10739;52.198;20.908;2022-12-18T05:17:10;102009.00;;;-1.10
45850;BMP180;10739;52.198;20.908;2022-12-18T05:19:37;102015.00;;;-0.90
45850;BMP180;10739;52.198;20.908;2022-12-18T05:22:03;102021.00;;;-0.80
45850;BMP180;10739;52.198;20.908;2022-12-18T05:24:29;102024.00;;;-0.60
45850;BMP180;10739;52.198;20.908;2022-12-18T05:26:56;102029.00;;;-1.00
45850;BMP180;10739;52.198;20.908;2022-12-18T05:29:22;102040.00;;;-0.90
45850;BMP180;10739;52.198;20.908;2022-12-18T05:31:48;102039.00;;;-0.70
45850;BMP180;10739;52.198;20.908;2022-12-18T05:34:15;102047.00;;;-0.60
45850;BMP180;10739;52.198;20.908;2022-12-18T05:36:41;102040.00;;;-0.70
45850;BMP180;10739;52.198;20.908;2022-12-18T05:39:08;102044.00;;;-0.80
45850;BMP180;10739;52.198;20.908;2022-12-18T05:41:34;102045.00;;;-0.90
45850;BMP180;10739;52.198;20.908;2022-12-18T05:44:00;102043.00;;;-0.80
45850;BMP180;10739;52.198;20.908;2022-12-18T05:46:26;102048.00;;;-0.90
45850;BMP180;10739;52.198;20.908;2022-12-18T05:48:52;102057.00;;;-0.70
45850;BMP180;10739;52.198;20.908;2022-12-18T05:51:21;102044.00;;;-0.80
45850;BMP180;10739;52.198;20.908;2022-12-18T05:53:48;102053.00;;;-0.80
45850;BMP180;10739;52.198;20.908;2022-12-18T05:56:19;102056.00;;;-1.00
45850;BMP180;10739;52.198;20.908;2022-12-18T05:58:46;102059.00;;;-1.10
45850;BMP180;10739;52.198;20.908;2022-12-18T06:01:21;102063.00;;;-0.80
45850;BMP180;10739;52.198;20.908;2022-12-18T06:03:47;102067.00;;;-0.90
45850;BMP180;10739;52.198;20.908;2022-12-18T06:06:24;102069.00;;;-0.70
45850;BMP180;10739;52.198;20.908;2022-12-18T06:08:52;102070.00;;;-0.60
45850;BMP180;10739;52.198;20.908;2022-12-18T06:11:23;102081.00;;;-0.60
45850;BMP180;10739;52.198;20.908;2022-12-18T06:13:55;102086.00;;;-0.80
45850;BMP180;10739;52.198;20.908;2022-12-18T06:16:21;102104.00;;;-0.60
45850;BMP180;10739;52.198;20.908;2022-12-18T06:18:47;102096.00;;;-0.80
45850;BMP180;10739;52.198;20.908;2022-12-18T06:21:13;102103.00;;;-0.60
45850;BMP180;10739;52.198;20.908;2022-12-18T06:23:40;102107.00;;;-0.60
45850;BMP180;10739;52.198;20.908;2022-12-18T06:26:11;102106.00;;;-0.60
45850;BMP180;10739;52.198;20.908;2022-12-18T06:28:37;102117.00;;;-0.50
45850;BMP180;10739;52.198;20.908;2022-12-18T06:31:05;102120.00;;;-0.50
45850;BMP180;10739;52.198;20.908;2022-12-18T06:33:33;102118.00;;;-0.50
45850;BMP180;10739;52.198;20.908;2022-12-18T06:36:09;102119.00;;;-0.80
45850;BMP180;10739;52.198;20.908;2022-12-18T06:38:40;102127.00;;;-0.70
45850;BMP180;10739;52.198;20.908;2022-12-18T06:41:18;102133.00;;;-0.90
45850;BMP180;10739;52.198;20.908;2022-12-18T06:43:45;102142.00;;;-0.50
45850;BMP180;10739;52.198;20.908;2022-12-18T06:46:12;102143.00;;;-0.30
45850;BMP180;10739;52.198;20.908;2022-12-18T06:48:38;102159.00;;;-0.10
45850;BMP180;10739;52.198;20.908;2022-12-18T06:51:05;102160.00;;;-0.40
45850;BMP180;10739;52.198;20.908;2022-12-18T06:53:33;102163.00;;;-0.60
45850;BMP180;10739;52.198;20.908;2022-12-18T06:56:05;102172.00;;;-0.20
45850;BMP180;10739;52.198;20.908;2022-12-18T06:58:32;102172.00;;;-0.40
45850;BMP180;10739;52.198;20.908;2022-12-18T07:01:04;102173.00;;;-0.60
45850;BMP180;10739;52.198;20.908;2022-12-18T07:03:31;102172.00;;;-0.50
45850;BMP180;10739;52.198;20.908;2022-12-18T07:05:58;102172.00;;;-0.20
45850;BMP180;10739;52.198;20.908;2022-12-18T07:08:24;102174.00;;;-0.40
45850;BMP180;10739;52.198;20.908;2022-12-18T07:10:51;102183.00;;;-0.40
45850;BMP180;10739;52.198;20.908;2022-12-18T07:13:17;102169.00;;;-0.70
45850;BMP180;10739;52.198;20.908;2022-12-18T07:15:44;102186.00;;;-0.30
45850;BMP180;10739;52.198;20.908;2022-12-18T07:18:10;102191.00;;;-0.20
45850;BMP180;10739;52.198;20.908;2022-12-18T07:20:37;102189.00;;;-0.60
45850;BMP180;10739;52.198;20.908;2022-12-18T07:23:04;102194.00;;;-0.50
45850;BMP180;10739;52.198;20.908;2022-12-18T07:25:35;102180.00;;;-0.10
45850;BMP180;10739;52.198;20.908;2022-12-18T07:28:02;102196.00;;;0.10
45850;BMP180;10739;52.198;20.908;2022-12-18T07:30:28;102196.00;;;0.10
45850;BMP180;10739;52.198;20.908;2022-12-18T07:32:54;102205.00;;;0.10
45850;BMP180;10739;52.198;20.908;2022-12-18T07:35:20;102207.00;;;0.00
45850;BMP180;10739;52.198;20.908;2022-12-18T07:37:46;102217.00;;;-0.20
45850;BMP180;10739;52.198;20.908;2022-12-18T07:40:12;102205.00;;;0.00
45850;BMP180;10739;52.198;20.908;2022-12-18T07:42:39;102216.00;;;0.00
45850;BMP180;10739;52.198;20.908;2022-12-18T07:45:06;102227.00;;;0.10
45850;BMP180;10739;52.198;20.908;2022-12-18T07:47:35;102226.00;;;0.00
45850;BMP180;10739;52.198;20.908;2022-12-18T07:50:03;102243.00;;;0.10
45850;BMP180;10739;52.198;20.908;2022-12-18T07:52:30;102234.00;;;0.00
45850;BMP180;10739;52.198;20.908;2022-12-18T07:54:56;102239.00;;;-0.10
45850;BMP180;10739;52.198;20.908;2022-12-18T07:57:22;102240.00;;;-1.10
45850;BMP180;10739;52.198;20.908;2022-12-18T07:59:48;102249.00;;;-1.30
45850;BMP180;10739;52.198;20.908;2022-12-18T08:02:15;102262.00;;;-0.90
45850;BMP180;10739;52.198;20.908;2022-12-18T08:04:41;102264.00;;;-0.70
45850;BMP180;10739;52.198;20.908;2022-12-18T08:07:07;102256.00;;;-0.70
45850;BMP180;10739;52.198;20.908;2022-12-18T08:09:33;102266.00;;;-0.40
45850;BMP180;10739;52.198;20.908;2022-12-18T08:12:00;102272.00;;;-0.30
45850;BMP180;10739;52.198;20.908;2022-12-18T08:14:26;102284.00;;;-0.60
45850;BMP180;10739;52.198;20.908;2022-12-18T08:16:52;102272.00;;;-0.40
45850;BMP180;10739;52.198;20.908;2022-12-18T08:19:18;102285.00;;;0.00
45850;BMP180;10739;52.198;20.908;2022-12-18T08:21:45;102278.00;;;-0.20
45850;BMP180;10739;52.198;20.908;2022-12-18T08:24:11;102286.00;;;0.30
45850;BMP180;10739;52.198;20.908;2022-12-18T08:26:38;102295.00;;;0.30
45850;BMP180;10739;52.198;20.908;2022-12-18T08:29:04;102295.00;;;0.00
45850;BMP180;10739;52.198;20.908;2022-12-18T08:31:31;102297.00;;;-1.50
45850;BMP180;10739;52.198;20.908;2022-12-18T08:33:57;102308.00;;;-1.00
45850;BMP180;10739;52.198;20.908;2022-12-18T08:36:25;102299.00;;;-1.10
45850;BMP180;10739;52.198;20.908;2022-12-18T08:38:52;102307.00;;;-0.90
45850;BMP180;10739;52.198;20.908;2022-12-18T08:41:19;102308.00;;;-0.80
45850;BMP180;10739;52.198;20.908;2022-12-18T08:43:45;102297.00;;;-0.80
45850;BMP180;10739;52.198;20.908;2022-12-18T08:46:37;102318.00;;;-1.00
45850;BMP180;10739;52.198;20.908;2022-12-18T08:49:07;102302.00;;;-1.00
45850;BMP180;10739;52.198;20.908;2022-12-18T08:51:33;102317.00;;;-0.50
45850;BMP180;10739;52.198;20.908;2022-12-18T08:54:00;102317.00;;;0.00
45850;BMP180;10739;52.198;20.908;2022-12-18T08:56:26;102307.00;;;0.30
45850;BMP180;10739;52.198;20.908;2022-12-18T08:58:54;102314.00;;;0.20
45850;BMP180;10739;52.198;20.908;2022-12-18T09:01:21;102309.00;;;0.40
45850;BMP180;10739;52.198;20.908;2022-12-18T09:03:48;102317.00;;;-0.30
45850;BMP180;10739;52.198;20.908;2022-12-18T09:06:17;102326.00;;;-0.10
45850;BMP180;10739;52.198;20.908;2022-12-18T09:08:44;102336.00;;;0.10
45850;BMP180;10739;52.198;20.908;2022-12-18T09:11:30;102328.00;;;0.00
45850;BMP180;10739;52.198;20.908;2022-12-18T09:13:59;102346.00;;;0.10
45850;BMP180;10739;52.198;20.908;2022-12-18T09:16:29;102336.00;;;0.30
45850;BMP180;10739;52.198;20.908;2022-12-18T09:18:56;102341.00;;;0.20
45850;BMP180;10739;52.198;20.908;2022-12-18T09:21:32;102343.00;;;0.30
45850;BMP180;10739;52.198;20.908;2022-12-18T09:23:59;102340.00;;;-0.80
45850;BMP180;10739;52.198;20.908;2022-12-18T09:26:26;102354.00;;;-0.30
45850;BMP180;10739;52.198;20.908;2022-12-18T09:28:53;102350.00;;;-0.40
45850;BMP180;10739;52.198;20.908;2022-12-18T09:31:22;102341.00;;;0.00
45850;BMP180;10739;52.198;20.908;2022-12-18T09:33:48;102340.00;;;-0.50
45850;BMP180;10739;52.198;20.908;2022-12-18T09:36:17;102341.00;;;-0.20
45850;BMP180;10739;52.198;20.908;2022-12-18T09:38:44;102357.00;;;0.30
45850;BMP180;10739;52.198;20.908;2022-12-18T09:41:51;102349.00;;;-1.00
45850;BMP180;10739;52.198;20.908;2022-12-18T09:44:30;102351.00;;;-1.70
45850;BMP180;10739;52.198;20.908;2022-12-18T09:47:23;102355.00;;;-1.50
45850;BMP180;10739;52.198;20.908;2022-12-18T09:49:58;102350.00;;;-1.90
45850;BMP180;10739;52.198;20.908;2022-12-18T09:52:43;102372.00;;;-1.40
45850;BMP180;10739;52.198;20.908;2022-12-18T09:55:28;102356.00;;;-1.10
45850;BMP180;10739;52.198;20.908;2022-12-18T10:00:41;102356.00;;;-1.10
45850;BMP180;10739;52.198;20.908;2022-12-18T10:03:14;102362.00;;;-1.00
45850;BMP180;10739;52.198;20.908;2022-12-18T10:06:13;102359.00;;;-0.50
45850;BMP180;10739;52.198;20.908;2022-12-18T10:09:57;102369.00;;;-0.50
45850;BMP180;10739;52.198;20.908;2022-12-18T10:12:34;102372.00;;;0.10
45850;BMP180;10739;52.198;20.908;2022-12-18T10:20:57;102373.00;;;-0.70
45850;BMP180;10739;52.198;20.908;2022-12-18T10:23:39;102378.00;;;-0.80
45850;BMP180;10739;52.198;20.908;2022-12-18T10:26:10;102367.00;;;-1.10
45850;BMP180;10739;52.198;20.908;2022-12-18T10:28:40;102383.00;;;-0.50
45850;BMP180;10739;52.198;20.908;2022-12-18T10:31:17;102375.00;;;-0.30
45850;BMP180;10739;52.198;20.908;2022-12-18T10:33:44;102372.00;;;-0.30
45850;BMP180;10739;52.198;20.908;2022-12-18T10:36:11;102365.00;;;-0.50
45850;BMP180;10739;52.198;20.908;2022-12-18T10:38:37;102363.00;;;0.40
45850;BMP180;10739;52.198;20.908;2022-12-18T10:41:06;102364.00;;;0.70
45850;BMP180;10739;52.198;20.908;2022-12-18T10:43:40;102368.00;;;0.80
45850;BMP180;10739;52.198;20.908;2022-12-18T10:51:35;102358.00;;;0.40
45850;BMP180;10739;52.198;20.908;2022-12-18T10:56:42;102360.00;;;0.00
45850;BMP180;10739;52.198;20.908;2022-12-18T10:59:12;102365.00;;;0.20
45850;BMP180;10739;52.198;20.908;2022-12-18T11:01:58;102366.00;;;-0.20
45850;BMP180;10739;52.198;20.908;2022-12-18T11:04:28;102371.00;;;0.90
45850;BMP180;10739;52.198;20.908;2022-12-18T11:07:07;102356.00;;;1.20
45850;BMP180;10739;52.198;20.908;2022-12-18T11:09:37;102368.00;;;1.40
45850;BMP180;10739;52.198;20.908;2022-12-18T11:12:18;102368.00;;;0.70
45850;BMP180;10739;52.198;20.908;2022-12-18T11:17:35;102364.00;;;0.20
45850;BMP180;10739;52.198;20.908;2022-12-18T11:23:01;102359.00;;;1.10
45850;BMP180;10739;52.198;20.908;2022-12-18T11:25:30;102374.00;;;1.40
45850;BMP180;10739;52.198;20.908;2022-12-18T11:28:23;102371.00;;;0.70
45850;BMP180;10739;52.198;20.908;2022-12-18T11:31:27;102366.00;;;1.00
45850;BMP180;10739;52.198;20.908;2022-12-18T11:34:30;102369.00;;;1.70
45850;BMP180;10739;52.198;20.908;2022-12-18T11:37:00;102378.00;;;1.80
45850;BMP180;10739;52.198;20.908;2022-12-18T11:39:41;102366.00;;;1.80
45850;BMP180;10739;52.198;20.908;2022-12-18T11:42:36;102370.00;;;1.60
45850;BMP180;10739;52.198;20.908;2022-12-18T11:48:03;102367.00;;;1.60
45850;BMP180;10739;52.198;20.908;2022-12-18T11:50:49;102367.00;;;1.60
45850;BMP180;10739;52.198;20.908;2022-12-18T11:53:18;102372.00;;;2.10
45850;BMP180;10739;52.198;20.908;2022-12-18T11:58:47;102383.00;;;1.60
45850;BMP180;10739;52.198;20.908;2022-12-18T12:01:53;102366.00;;;1.50
45850;BMP180;10739;52.198;20.908;2022-12-18T12:04:36;102382.00;;;1.10
45850;BMP180;10739;52.198;20.908;2022-12-18T12:07:21;102377.00;;;1.20
45850;BMP180;10739;52.198;20.908;2022-12-18T12:21:16;102369.00;;;1.40
45850;BMP180;10739;52.198;20.908;2022-12-18T12:27:11;102395.00;;;0.50
45850;BMP180;10739;52.198;20.908;2022-12-18T12:35:55;102406.00;;;1.30
45850;BMP180;10739;52.198;20.908;2022-12-18T12:38:56;102414.00;;;1.10
45850;BMP180;10739;52.198;20.908;2022-12-18T12:41:27;102422.00;;;0.70
45850;BMP180;10739;52.198;20.908;2022-12-18T12:44:25;102420.00;;;0.60
45850;BMP180;10739;52.198;20.908;2022-12-18T12:47:00;102413.00;;;0.60
45850;BMP180;10739;52.198;20.908;2022-12-18T12:49:32;102417.00;;;0.60
45850;BMP180;10739;52.198;20.908;2022-12-18T12:52:08;102419.00;;;0.70
45850;BMP180;10739;52.198;20.908;2022-12-18T12:54:37;102435.00;;;0.70
45850;BMP180;10739;52.198;20.908;2022-12-18T12:57:36;102450.00;;;1.10
45850;BMP180;10739;52.198;20.908;2022-12-18T13:00:10;102458.00;;;0.80
45850;BMP180;10739;52.198;20.908;2022-12-18T13:05:43;102461.00;;;0.90
45850;BMP180;10739;52.198;20.908;2022-12-18T13:08:30;102458.00;;;0.20
45850;BMP180;10739;52.198;20.908;2022-12-18T13:10:58;102460.00;;;0.70
45850;BMP180;10739;52.198;20.908;2022-12-18T13:13:54;102472.00;;;0.40
45850;BMP180;10739;52.198;20.908;2022-12-18T13:16:24;102476.00;;;0.10
45850;BMP180;10739;52.198;20.908;2022-12-18T13:18:53;102479.00;;;0.00
45850;BMP180;10739;52.198;20.908;2022-12-18T13:21:33;102482.00;;;0.10
45850;BMP180;10739;52.198;20.908;2022-12-18T13:24:32;102486.00;;;-0.10
45850;BMP180;10739;52.198;20.908;2022-12-18T13:26:58;102485.00;;;-0.30
45850;BMP180;10739;52.198;20.908;2022-12-18T13:29:45;102482.00;;;-0.70
45850;BMP180;10739;52.198;20.908;2022-12-18T13:32:25;102491.00;;;-0.40
45850;BMP180;10739;52.198;20.908;2022-12-18T13:38:00;102486.00;;;-0.40
45850;BMP180;10739;52.198;20.908;2022-12-18T13:48:38;102509.00;;;-0.60
45850;BMP180;10739;52.198;20.908;2022-12-18T13:51:09;102501.00;;;-0.50
45850;BMP180;10739;52.198;20.908;2022-12-18T13:53:58;102499.00;;;-0.10
45850;BMP180;10739;52.198;20.908;2022-12-18T13:56:32;102491.00;;;-0.10
45850;BMP180;10739;52.198;20.908;2022-12-18T13:59:33;102507.00;;;0.00
45850;BMP180;10739;52.198;20.908;2022-12-18T14:02:25;102508.00;;;0.10
45850;BMP180;10739;52.198;20.908;2022-12-18T14:04:53;102509.00;;;-0.40
45850;BMP180;10739;52.198;20.908;2022-12-18T14:07:25;102516.00;;;-0.30
45850;BMP180;10739;52.198;20.908;2022-12-18T14:09:55;102513.00;;;-0.40
45850;BMP180;10739;52.198;20.908;2022-12-18T14:12:34;102524.00;;;0.00
45850;BMP180;10739;52.198;20.908;2022-12-18T14:20:59;102522.00;;;-0.40
45850;BMP180;10739;52.198;20.908;2022-12-18T14:23:39;102520.00;;;-0.30
45850;BMP180;10739;52.198;20.908;2022-12-18T14:26:30;102518.00;;;-0.20
45850;BMP180;10739;52.198;20.908;2022-12-18T14:29:00;102515.00;;;0.20
45850;BMP180;10739;52.198;20.908;2022-12-18T14:31:30;102509.00;;;0.30
45850;BMP180;10739;52.198;20.908;2022-12-18T14:33:57;102507.00;;;0.60
45850;BMP180;10739;52.198;20.908;2022-12-18T14:36:27;102517.00;;;0.50
45850;BMP180;10739;52.198;20.908;2022-12-18T14:38:56;102515.00;;;0.60
45850;BMP180;10739;52.198;20.908;2022-12-18T14:41:24;102518.00;;;0.40
45850;BMP180;10739;52.198;20.908;2022-12-18T14:43:53;102526.00;;;0.30
45850;BMP180;10739;52.198;20.908;2022-12-18T14:48:57;102531.00;;;0.70
45850;BMP180;10739;52.198;20.908;2022-12-18T14:51:27;102529.00;;;0.30
45850;BMP180;10739;52.198;20.908;2022-12-18T14:54:03;102531.00;;;-0.20
45850;BMP180;10739;52.198;20.908;2022-12-18T14:56:47;102530.00;;;-0.50
45850;BMP180;10739;52.198;20.908;2022-12-18T14:59:21;102520.00;;;0.40
45850;BMP180;10739;52.198;20.908;2022-12-18T15:05:20;102534.00;;;0.30
45850;BMP180;10739;52.198;20.908;2022-12-18T15:07:52;102541.00;;;-0.30
45850;BMP180;10739;52.198;20.908;2022-12-18T15:10:22;102545.00;;;0.00
45850;BMP180;10739;52.198;20.908;2022-12-18T15:13:25;102548.00;;;-0.20
45850;BMP180;10739;52.198;20.908;2022-12-18T15:15:56;102548.00;;;-0.50
45850;BMP180;10739;52.198;20.908;2022-12-18T15:18:35;102547.00;;;0.20
45850;BMP180;10739;52.198;20.908;2022-12-18T15:21:16;102555.00;;;-0.20
45850;BMP180;10739;52.198;20.908;2022-12-18T15:23:52;102544.00;;;-0.30
45850;BMP180;10739;52.198;20.908;2022-12-18T15:26:21;102546.00;;;-0.20
45850;BMP180;10739;52.198;20.908;2022-12-18T15:28:55;102544.00;;;-0.10
45850;BMP180;10739;52.198;20.908;2022-12-18T15:31:31;102549.00;;;0.30
45850;BMP180;10739;52.198;20.908;2022-12-18T15:36:29;102550.00;;;-0.70
45850;BMP180;10739;52.198;20.908;2022-12-18T15:39:03;102561.00;;;-0.30
45850;BMP180;10739;52.198;20.908;2022-12-18T15:41:33;102569.00;;;-0.40
45850;BMP180;10739;52.198;20.908;2022-12-18T15:44:00;102567.00;;;0.10
45850;BMP180;10739;52.198;20.908;2022-12-18T15:46:26;102569.00;;;-0.50
45850;BMP180;10739;52.198;20.908;2022-12-18T15:48:57;102561.00;;;-0.90
45850;BMP180;10739;52.198;20.908;2022-12-18T15:51:33;102567.00;;;-0.60
45850;BMP180;10739;52.198;20.908;2022-12-18T15:54:04;102559.00;;;-0.30
45850;BMP180;10739;52.198;20.908;2022-12-18T15:56:31;102565.00;;;-0.20